createdAt,value
2022-09-14T00:00:41.852Z,19.09
2022-09-14T00:01:34.268Z,18.78
2022-09-14T00:02:20.975Z,18.74
2022-09-14T00:03:07.634Z,18.69
2022-09-14T00:04:00.159Z,18.55
2022-09-14T00:04:46.669Z,18.47
2022-09-14T00:05:35.752Z,18.36
2022-09-14T00:06:23.265Z,18.35
2022-09-14T00:07:09.674Z,18.44
2022-09-14T00:07:56.121Z,18.47
2022-09-14T00:08:43.785Z,18.48
2022-09-14T00:09:30.199Z,18.52
2022-09-14T00:10:16.677Z,18.86
2022-09-14T00:11:10.036Z,18.98
2022-09-14T00:11:56.617Z,19.02
2022-09-14T00:12:43.105Z,18.83
2022-09-14T00:13:29.548Z,18.88
2022-09-14T00:14:17.265Z,18.85
2022-09-14T00:15:06.957Z,18.79
2022-09-14T00:15:53.402Z,18.79
2022-09-14T00:16:42.284Z,18.77
2022-09-14T00:17:28.750Z,18.75
2022-09-14T00:18:15.280Z,18.76
2022-09-14T00:19:06.026Z,18.78
2022-09-14T00:19:53.602Z,18.91
2022-09-14T00:20:40.142Z,18.96
2022-09-14T00:21:27.974Z,19.00
2022-09-14T00:22:14.991Z,19.05
2022-09-14T00:23:01.992Z,19.01
2022-09-14T00:23:48.683Z,19.03
2022-09-14T00:24:35.231Z,19.10
2022-09-14T00:25:21.619Z,19.16
2022-09-14T00:26:14.784Z,19.07
2022-09-14T00:27:02.629Z,19.09
2022-09-14T00:27:49.394Z,19.09
2022-09-14T00:28:41.652Z,19.05
2022-09-14T00:29:29.661Z,19.06
2022-09-14T00:30:16.100Z,19.04
2022-09-14T00:31:04.377Z,18.96
2022-09-14T00:31:51.386Z,18.96
2022-09-14T00:32:37.946Z,18.92
2022-09-14T00:33:24.322Z,18.94
2022-09-14T00:34:14.548Z,18.94
2022-09-14T00:35:00.953Z,18.90
2022-09-14T00:35:47.319Z,18.88
2022-09-14T00:36:39.739Z,18.85
2022-09-14T00:37:26.353Z,18.87
2022-09-14T00:38:12.714Z,18.85
2022-09-14T00:39:00.646Z,18.92
2022-09-14T00:39:48.971Z,19.04
2022-09-14T00:40:36.171Z,19.03
2022-09-14T00:41:25.732Z,19.02
2022-09-14T00:42:19.295Z,19.01
2022-09-14T00:43:14.789Z,18.96
2022-09-14T00:44:05.735Z,19.05
2022-09-14T00:44:52.634Z,19.09
2022-09-14T00:45:39.117Z,19.02
2022-09-14T00:46:28.294Z,19.02
2022-09-14T00:47:17.243Z,19.00
2022-09-14T00:48:04.626Z,18.94
2022-09-14T00:48:52.789Z,18.88
2022-09-14T00:49:42.417Z,18.84
2022-09-14T00:50:28.960Z,18.84
2022-09-14T00:51:18.734Z,18.93
2022-09-14T00:52:14.896Z,18.96
2022-09-14T00:53:01.616Z,18.90
2022-09-14T00:53:48.409Z,18.91
2022-09-14T00:54:51.000Z,18.95
2022-09-14T00:55:39.111Z,18.93
2022-09-14T00:56:26.084Z,18.96
2022-09-14T00:57:14.120Z,18.93
2022-09-14T00:58:01.236Z,18.91
2022-09-14T00:58:51.198Z,18.93
2022-09-14T00:59:40.820Z,18.99
2022-09-14T01:00:29.618Z,18.94
2022-09-14T01:01:16.266Z,18.96
2022-09-14T01:02:04.755Z,19.03
2022-09-14T01:02:51.725Z,19.05
2022-09-14T01:03:38.123Z,19.10
2022-09-14T01:04:24.690Z,19.14
2022-09-14T01:05:12.815Z,19.15
2022-09-14T01:06:05.329Z,19.21
2022-09-14T01:07:30.071Z,19.18
2022-09-14T01:08:35.594Z,19.36
2022-09-14T01:09:47.761Z,19.11
2022-09-14T01:10:55.757Z,19.18
2022-09-14T01:11:57.474Z,19.13
2022-09-14T01:13:08.650Z,19.01
2022-09-14T01:14:31.819Z,19.12
2022-09-14T01:15:34.087Z,19.00
2022-09-14T01:16:33.596Z,18.93
2022-09-14T01:17:34.886Z,19.06
2022-09-14T01:18:27.544Z,19.04
2022-09-14T01:19:31.626Z,19.08
2022-09-14T01:20:34.031Z,18.98
2022-09-14T01:21:34.588Z,18.88
2022-09-14T01:22:36.734Z,18.98
2022-09-14T01:23:48.031Z,19.01
2022-09-14T01:24:48.298Z,18.88
2022-09-14T01:25:40.348Z,18.85
2022-09-14T01:26:58.414Z,18.90
2022-09-14T01:27:45.951Z,18.84
2022-09-14T01:28:52.340Z,18.89
2022-09-14T01:29:49.984Z,18.95
2022-09-14T01:30:41.198Z,18.98
2022-09-14T01:31:44.876Z,19.01
2022-09-14T01:32:52.208Z,19.14
2022-09-14T01:34:07.830Z,19.08
2022-09-14T01:35:18.504Z,19.12
2022-09-14T01:36:09.948Z,19.06
2022-09-14T01:37:04.717Z,19.09
2022-09-14T01:38:01.816Z,18.95
2022-09-14T01:38:54.602Z,18.93
2022-09-14T01:39:47.939Z,18.92
2022-09-14T01:40:44.122Z,18.85
2022-09-14T01:41:32.921Z,18.93
2022-09-14T01:42:26.480Z,18.89
2022-09-14T01:43:29.573Z,18.94
2022-09-14T01:44:28.000Z,18.96
2022-09-14T01:45:19.869Z,18.98
2022-09-14T01:46:26.855Z,18.95
2022-09-14T01:47:27.943Z,18.97
2022-09-14T01:48:21.146Z,19.01
2022-09-14T01:49:14.987Z,18.96
2022-09-14T01:50:08.061Z,18.92
2022-09-14T01:51:00.940Z,18.85
2022-09-14T01:51:53.032Z,18.92
2022-09-14T01:52:57.000Z,18.93
2022-09-14T01:54:16.934Z,18.97
2022-09-14T01:55:31.712Z,18.88
2022-09-14T01:56:32.055Z,18.96
2022-09-14T01:57:27.787Z,19.02
2022-09-14T01:58:25.754Z,18.97
2022-09-14T01:59:20.998Z,18.93
2022-09-14T02:00:16.273Z,18.87
2022-09-14T02:01:37.654Z,18.89
2022-09-14T02:02:40.406Z,18.93
2022-09-14T02:03:37.156Z,18.87
2022-09-14T02:04:38.641Z,18.94
2022-09-14T02:05:51.533Z,19.03
2022-09-14T02:06:45.376Z,19.00
2022-09-14T02:07:33.109Z,19.00
2022-09-14T02:08:19.706Z,18.97
2022-09-14T02:09:10.109Z,18.86
2022-09-14T02:09:56.492Z,18.90
2022-09-14T02:10:43.427Z,18.91
2022-09-14T02:11:29.857Z,18.92
2022-09-14T02:12:16.785Z,18.98
2022-09-14T02:13:03.430Z,18.99
2022-09-14T02:13:50.170Z,18.95
2022-09-14T02:14:37.016Z,18.93
2022-09-14T02:15:25.871Z,18.91
2022-09-14T02:16:13.214Z,18.89
2022-09-14T02:16:59.986Z,18.88
2022-09-14T02:17:47.716Z,18.87
2022-09-14T02:18:34.587Z,18.85
2022-09-14T02:19:23.938Z,18.87
2022-09-14T02:20:44.568Z,18.79
2022-09-14T02:21:33.051Z,18.84
2022-09-14T02:22:19.438Z,18.80
2022-09-14T02:23:06.714Z,18.80
2022-09-14T02:23:54.085Z,18.80
2022-09-14T02:24:40.586Z,18.76
2022-09-14T02:25:27.558Z,18.84
2022-09-14T02:26:14.244Z,18.85
2022-09-14T02:27:02.850Z,18.85
2022-09-14T02:27:49.383Z,18.79
2022-09-14T02:28:36.097Z,18.79
2022-09-14T02:29:22.592Z,18.79
2022-09-14T02:30:09.652Z,18.84
2022-09-14T02:31:35.900Z,18.89
2022-09-14T02:32:35.228Z,18.89
2022-09-14T02:33:53.045Z,18.91
2022-09-14T02:35:21.235Z,18.79
2022-09-14T02:36:19.755Z,18.69
2022-09-14T02:37:29.429Z,18.70
2022-09-14T02:38:33.444Z,18.79
2022-09-14T02:39:43.691Z,18.83
2022-09-14T02:40:42.957Z,18.83
2022-09-14T02:41:50.422Z,18.85
2022-09-14T02:42:50.756Z,18.86
2022-09-14T02:44:00.985Z,18.85
2022-09-14T02:45:07.631Z,18.87
2022-09-14T02:46:27.641Z,18.91
2022-09-14T02:47:36.589Z,18.92
2022-09-14T02:48:28.990Z,18.82
2022-09-14T02:49:41.654Z,18.89
2022-09-14T02:50:37.031Z,18.93
2022-09-14T02:51:49.374Z,18.86
2022-09-14T02:52:58.179Z,18.87
2022-09-14T02:53:47.477Z,18.89
2022-09-14T02:54:41.013Z,18.93
2022-09-14T02:55:37.295Z,18.90
2022-09-14T02:56:25.515Z,18.86
2022-09-14T02:57:12.009Z,18.77
2022-09-14T02:58:12.908Z,18.77
2022-09-14T02:58:59.637Z,18.81
2022-09-14T02:59:46.339Z,18.73
2022-09-14T03:00:38.362Z,18.71
2022-09-14T03:01:25.429Z,18.73
2022-09-14T03:02:12.018Z,18.69
2022-09-14T03:02:58.842Z,18.71
2022-09-14T03:03:45.631Z,18.75
2022-09-14T03:04:32.010Z,18.79
2022-09-14T03:05:18.603Z,18.78
2022-09-14T03:06:05.565Z,18.79
2022-09-14T03:06:52.032Z,18.75
2022-09-14T03:07:38.414Z,18.71
2022-09-14T03:08:26.626Z,18.71
2022-09-14T03:09:13.016Z,18.79
2022-09-14T03:09:59.455Z,18.70
2022-09-14T03:10:46.106Z,18.71
2022-09-14T03:11:32.618Z,18.69
2022-09-14T03:12:20.016Z,18.71
2022-09-14T03:13:06.401Z,18.72
2022-09-14T03:13:52.846Z,18.75
2022-09-14T03:14:39.300Z,18.79
2022-09-14T03:15:27.210Z,18.78
2022-09-14T03:16:16.836Z,18.80
2022-09-14T03:17:03.648Z,18.80
2022-09-14T03:17:51.312Z,18.78
2022-09-14T03:18:38.636Z,18.78
2022-09-14T03:19:25.566Z,18.73
2022-09-14T03:20:12.001Z,18.72
2022-09-14T03:21:12.882Z,18.70
2022-09-14T03:21:59.917Z,18.75
2022-09-14T03:22:47.028Z,18.78
2022-09-14T03:23:41.163Z,18.71
2022-09-14T03:24:27.611Z,18.68
2022-09-14T03:25:14.905Z,18.62
2022-09-14T03:26:01.368Z,18.66
2022-09-14T03:26:52.028Z,18.71
2022-09-14T03:27:39.635Z,18.76
2022-09-14T03:28:26.017Z,18.72
2022-09-14T03:29:15.298Z,18.74
2022-09-14T03:30:01.875Z,18.76
2022-09-14T03:30:48.383Z,18.72
2022-09-14T03:31:34.891Z,18.61
2022-09-14T03:32:21.313Z,18.56
2022-09-14T03:33:07.707Z,18.64
2022-09-14T03:33:58.946Z,18.73
2022-09-14T03:34:45.328Z,18.72
2022-09-14T03:35:32.696Z,18.68
2022-09-14T03:36:20.082Z,18.72
2022-09-14T03:37:07.071Z,18.74
2022-09-14T03:37:53.578Z,18.74
2022-09-14T03:38:45.721Z,18.76
2022-09-14T03:39:32.117Z,18.75
2022-09-14T03:40:21.829Z,18.76
2022-09-14T03:41:13.306Z,18.78
2022-09-14T03:41:59.750Z,18.79
2022-09-14T03:42:48.886Z,18.80
2022-09-14T03:43:36.517Z,18.76
2022-09-14T03:44:22.939Z,18.78
2022-09-14T03:45:10.128Z,18.80
2022-09-14T03:45:56.635Z,18.80
2022-09-14T03:46:44.240Z,18.81
2022-09-14T03:47:31.457Z,18.84
2022-09-14T03:48:17.900Z,18.84
2022-09-14T03:49:04.406Z,18.81
2022-09-14T03:49:50.982Z,18.86
2022-09-14T03:50:38.882Z,18.83
2022-09-14T03:51:25.386Z,18.86
2022-09-14T03:52:11.854Z,18.86
2022-09-14T03:52:58.307Z,18.85
2022-09-14T03:53:45.515Z,18.84
2022-09-14T03:54:31.945Z,18.89
2022-09-14T03:55:19.134Z,18.82
2022-09-14T03:56:20.430Z,18.75
2022-09-14T03:57:07.413Z,18.70
2022-09-14T03:57:55.001Z,18.76
2022-09-14T03:58:42.428Z,18.72
2022-09-14T03:59:28.832Z,18.72
2022-09-14T04:00:15.480Z,18.77
2022-09-14T04:01:23.586Z,18.79
2022-09-14T04:02:10.095Z,18.74
2022-09-14T04:02:56.602Z,18.77
2022-09-14T04:03:44.053Z,18.78
2022-09-14T04:04:30.560Z,18.77
2022-09-14T04:05:21.618Z,18.81
2022-09-14T04:06:08.476Z,18.82
2022-09-14T04:06:55.120Z,18.78
2022-09-14T04:07:41.867Z,18.77
2022-09-14T04:08:28.317Z,18.82
2022-09-14T04:09:15.103Z,18.78
2022-09-14T04:10:01.528Z,18.83
2022-09-14T04:10:48.018Z,18.86
2022-09-14T04:11:34.796Z,18.87
2022-09-14T04:12:21.204Z,18.87
2022-09-14T04:13:07.571Z,18.87
2022-09-14T04:13:54.155Z,18.85
2022-09-14T04:14:40.575Z,18.85
2022-09-14T04:15:26.974Z,18.85
2022-09-14T04:16:14.905Z,18.84
2022-09-14T04:17:01.317Z,18.86
2022-09-14T04:17:48.487Z,18.85
2022-09-14T04:18:34.939Z,18.85
2022-09-14T04:19:21.362Z,18.85
2022-09-14T04:20:08.474Z,18.81
2022-09-14T04:20:57.217Z,18.79
2022-09-14T04:21:43.682Z,18.81
2022-09-14T04:22:32.477Z,18.81
2022-09-14T04:23:19.023Z,18.89
2022-09-14T04:24:21.395Z,18.85
2022-09-14T04:25:08.545Z,18.90
2022-09-14T04:25:55.445Z,18.80
2022-09-14T04:26:43.440Z,18.75
2022-09-14T04:27:30.640Z,18.73
2022-09-14T04:28:20.600Z,18.75
2022-09-14T04:29:08.887Z,18.76
2022-09-14T04:29:55.330Z,18.79
2022-09-14T04:30:42.652Z,18.81
2022-09-14T04:31:29.376Z,18.79
2022-09-14T04:32:16.795Z,18.82
2022-09-14T04:33:04.883Z,18.79
2022-09-14T04:33:51.520Z,18.78
2022-09-14T04:34:37.898Z,18.78
2022-09-14T04:35:24.408Z,18.79
2022-09-14T04:36:14.114Z,18.76
2022-09-14T04:37:01.690Z,18.80
2022-09-14T04:37:48.108Z,18.79
2022-09-14T04:38:36.156Z,18.75
2022-09-14T04:39:22.618Z,18.75
2022-09-14T04:40:09.718Z,18.76
2022-09-14T04:40:57.453Z,18.81
2022-09-14T04:41:44.173Z,18.80
2022-09-14T04:42:31.304Z,18.83
2022-09-14T04:43:17.712Z,18.81
2022-09-14T04:44:04.108Z,18.76
2022-09-14T04:44:50.546Z,18.76
2022-09-14T04:45:36.960Z,18.76
2022-09-14T04:46:26.584Z,18.78
2022-09-14T04:47:13.065Z,18.78
2022-09-14T04:47:59.443Z,18.80
2022-09-14T04:48:46.722Z,18.80
2022-09-14T04:49:33.106Z,18.81
2022-09-14T04:50:19.477Z,18.83
2022-09-14T04:51:13.631Z,18.80
2022-09-14T04:52:00.032Z,18.81
2022-09-14T04:52:46.409Z,18.83
2022-09-14T04:53:37.785Z,18.81
2022-09-14T04:54:24.171Z,18.73
2022-09-14T04:55:10.588Z,18.74
2022-09-14T04:56:06.163Z,18.77
2022-09-14T04:56:52.786Z,18.72
2022-09-14T04:57:39.198Z,18.73
2022-09-14T04:58:25.640Z,18.72
2022-09-14T04:59:12.848Z,18.72
2022-09-14T05:00:01.600Z,18.72
2022-09-14T05:00:52.056Z,18.74
2022-09-14T05:01:41.623Z,18.72
2022-09-14T05:02:31.228Z,18.72
2022-09-14T05:03:17.645Z,18.75
2022-09-14T05:04:05.708Z,18.75
2022-09-14T05:04:52.552Z,18.78
2022-09-14T05:05:44.200Z,18.75
2022-09-14T05:06:33.973Z,18.77
2022-09-14T05:07:20.374Z,18.76
2022-09-14T05:08:06.962Z,18.77
2022-09-14T05:08:54.628Z,18.76
2022-09-14T05:09:41.044Z,18.77
2022-09-14T05:10:27.461Z,18.74
2022-09-14T05:11:17.186Z,18.78
2022-09-14T05:12:03.653Z,18.75
2022-09-14T05:12:50.302Z,18.75
2022-09-14T05:13:36.802Z,18.76
2022-09-14T05:14:23.517Z,18.75
2022-09-14T05:15:10.051Z,18.76
2022-09-14T05:16:05.321Z,18.75
2022-09-14T05:16:51.801Z,18.78
2022-09-14T05:17:38.253Z,18.77
2022-09-14T05:18:24.665Z,18.67
2022-09-14T05:19:15.062Z,18.68
2022-09-14T05:20:02.166Z,18.70
2022-09-14T05:20:48.546Z,18.74
2022-09-14T05:21:37.805Z,18.69
2022-09-14T05:22:24.208Z,18.75
2022-09-14T05:23:11.047Z,18.77
2022-09-14T05:24:04.071Z,18.75
2022-09-14T05:24:50.479Z,18.77
2022-09-14T05:25:36.999Z,18.78
2022-09-14T05:26:25.615Z,18.75
2022-09-14T05:27:12.182Z,18.76
2022-09-14T05:27:58.581Z,18.78
2022-09-14T05:28:50.577Z,18.82
2022-09-14T05:29:39.536Z,18.79
2022-09-14T05:30:26.092Z,18.82
2022-09-14T05:31:13.126Z,18.79
2022-09-14T05:32:00.205Z,18.79
2022-09-14T05:32:46.868Z,18.81
2022-09-14T05:33:34.782Z,18.83
2022-09-14T05:34:21.163Z,18.84
2022-09-14T05:35:07.993Z,18.79
2022-09-14T05:36:07.161Z,18.81
2022-09-14T05:36:53.543Z,18.88
2022-09-14T05:37:40.033Z,18.84
2022-09-14T05:38:28.811Z,18.82
2022-09-14T05:39:18.688Z,18.81
2022-09-14T05:40:08.867Z,18.78
2022-09-14T05:40:55.603Z,18.78
2022-09-14T05:41:41.998Z,18.79
2022-09-14T05:42:28.394Z,18.78
2022-09-14T05:43:14.801Z,18.77
2022-09-14T05:44:01.340Z,18.73
2022-09-14T05:44:47.794Z,18.75
2022-09-14T05:45:34.961Z,18.69
2022-09-14T05:46:22.478Z,18.63
2022-09-14T05:47:09.085Z,18.59
2022-09-14T05:47:55.491Z,18.63
2022-09-14T05:48:42.449Z,18.62
2022-09-14T05:49:29.202Z,18.63
2022-09-14T05:50:15.844Z,18.64
2022-09-14T05:51:14.420Z,18.66
2022-09-14T05:52:01.030Z,18.64
2022-09-14T05:52:48.959Z,18.69
2022-09-14T05:53:36.030Z,18.65
2022-09-14T05:54:22.434Z,18.65
2022-09-14T05:55:09.120Z,18.65
2022-09-14T05:56:10.539Z,18.81
2022-09-14T05:56:57.130Z,18.81
2022-09-14T05:57:43.480Z,18.82
2022-09-14T05:58:30.337Z,18.82
2022-09-14T05:59:16.714Z,18.85
2022-09-14T06:00:04.752Z,18.82
2022-09-14T06:00:58.886Z,18.78
2022-09-14T06:01:45.319Z,18.78
2022-09-14T06:02:31.800Z,18.78
2022-09-14T06:03:18.901Z,18.83
2022-09-14T06:04:05.353Z,18.83
2022-09-14T06:04:51.768Z,18.95
2022-09-14T06:05:38.204Z,18.97
2022-09-14T06:06:24.956Z,19.03
2022-09-14T06:07:19.215Z,19.02
2022-09-14T06:08:05.856Z,19.00
2022-09-14T06:08:55.031Z,19.00
2022-09-14T06:09:42.528Z,18.96
2022-09-14T06:10:28.890Z,18.97
2022-09-14T06:11:18.537Z,18.97
2022-09-14T06:12:05.353Z,18.95
2022-09-14T06:12:55.354Z,18.91
2022-09-14T06:13:43.310Z,18.89
2022-09-14T06:14:29.761Z,18.97
2022-09-14T06:15:17.446Z,19.00
2022-09-14T06:16:09.542Z,19.00
2022-09-14T06:16:55.962Z,19.00
2022-09-14T06:17:42.318Z,18.93
2022-09-14T06:18:31.732Z,18.84
2022-09-14T06:19:18.175Z,18.82
2022-09-14T06:20:07.660Z,18.82
2022-09-14T06:20:54.105Z,18.83
2022-09-14T06:21:42.733Z,18.78
2022-09-14T06:22:29.176Z,18.69
2022-09-14T06:23:15.629Z,18.70
2022-09-14T06:24:04.020Z,18.69
2022-09-14T06:24:50.581Z,18.70
2022-09-14T06:25:37.004Z,18.68
2022-09-14T06:26:24.634Z,18.66
2022-09-14T06:27:11.809Z,18.70
2022-09-14T06:27:58.188Z,18.62
2022-09-14T06:28:45.078Z,18.55
2022-09-14T06:29:31.540Z,18.56
2022-09-14T06:30:18.152Z,18.52
2022-09-14T06:31:07.442Z,18.54
2022-09-14T06:31:54.278Z,18.46
2022-09-14T06:32:40.648Z,18.53
2022-09-14T06:33:27.146Z,18.50
2022-09-14T06:34:13.730Z,18.50
2022-09-14T06:35:00.952Z,18.50
2022-09-14T06:36:03.457Z,18.60
2022-09-14T06:36:49.906Z,18.75
2022-09-14T06:37:36.282Z,18.76
2022-09-14T06:38:23.336Z,18.74
2022-09-14T06:39:10.787Z,18.82
2022-09-14T06:39:57.512Z,18.92
2022-09-14T06:40:52.143Z,18.89
2022-09-14T06:41:38.518Z,18.73
2022-09-14T06:42:32.399Z,18.80
2022-09-14T06:43:19.125Z,18.73
2022-09-14T06:44:05.614Z,18.70
2022-09-14T06:44:52.049Z,18.79
2022-09-14T06:45:38.524Z,18.57
2022-09-14T06:46:31.544Z,18.45
2022-09-14T06:47:17.977Z,18.40
2022-09-14T06:48:04.467Z,18.37
2022-09-14T06:49:26.085Z,18.25
2022-09-14T06:50:12.478Z,18.32
2022-09-14T06:50:58.858Z,18.20
2022-09-14T06:51:47.175Z,18.44
2022-09-14T06:52:37.002Z,18.31
2022-09-14T06:53:23.883Z,18.29
2022-09-14T06:54:12.821Z,18.16
2022-09-14T06:54:59.216Z,18.12
2022-09-14T06:55:46.078Z,18.07
2022-09-14T06:56:35.732Z,17.98
2022-09-14T06:57:22.302Z,17.91
2022-09-14T06:58:09.457Z,17.94
2022-09-14T06:58:55.902Z,17.98
2022-09-14T06:59:42.392Z,17.81
2022-09-14T07:00:28.879Z,17.79
2022-09-14T07:01:17.267Z,17.78
2022-09-14T07:02:03.812Z,17.82
2022-09-14T07:02:53.658Z,17.77
2022-09-14T07:03:43.873Z,17.78
2022-09-14T07:04:30.301Z,17.80
2022-09-14T07:05:19.125Z,17.81
2022-09-14T07:06:09.728Z,17.86
2022-09-14T07:06:56.164Z,17.85
2022-09-14T07:07:42.613Z,17.87
2022-09-14T07:08:29.416Z,17.85
2022-09-14T07:09:18.604Z,17.93
2022-09-14T07:10:05.527Z,17.86
2022-09-14T07:10:58.771Z,17.79
2022-09-14T07:11:46.048Z,17.73
2022-09-14T07:12:32.438Z,17.74
2022-09-14T07:13:18.823Z,17.64
2022-09-14T07:14:06.443Z,17.65
2022-09-14T07:14:52.828Z,17.58
2022-09-14T07:15:39.291Z,17.53
2022-09-14T07:16:31.859Z,17.58
2022-09-14T07:17:18.332Z,17.53
2022-09-14T07:18:04.863Z,17.50
2022-09-14T07:18:55.373Z,17.56
2022-09-14T07:19:43.281Z,17.49
2022-09-14T07:20:30.179Z,17.59
2022-09-14T07:21:20.487Z,17.56
2022-09-14T07:22:06.877Z,17.53
2022-09-14T07:22:53.364Z,17.52
2022-09-14T07:23:42.131Z,17.60
2022-09-14T07:24:28.559Z,17.52
2022-09-14T07:25:15.088Z,17.58
2022-09-14T07:26:07.728Z,17.54
2022-09-14T07:26:54.172Z,17.55
2022-09-14T07:27:40.983Z,17.46
2022-09-14T07:28:27.664Z,17.48
2022-09-14T07:29:18.154Z,17.60
2022-09-14T07:30:07.985Z,17.61
2022-09-14T07:30:58.933Z,17.59
2022-09-14T07:31:56.565Z,17.50
2022-09-14T07:32:42.965Z,17.55
2022-09-14T07:33:29.493Z,17.63
2022-09-14T07:34:16.860Z,17.62
2022-09-14T07:35:03.471Z,17.57
2022-09-14T07:35:50.164Z,17.58
2022-09-14T07:36:38.025Z,17.55
2022-09-14T07:37:24.472Z,17.59
2022-09-14T07:38:10.842Z,17.64
2022-09-14T07:38:58.171Z,17.69
2022-09-14T07:39:44.829Z,17.74
2022-09-14T07:40:31.747Z,17.74
2022-09-14T07:41:18.846Z,17.78
2022-09-14T07:42:05.515Z,17.78
2022-09-14T07:42:57.442Z,17.81
2022-09-14T07:43:44.462Z,17.88
2022-09-14T07:44:30.946Z,17.84
2022-09-14T07:45:17.457Z,17.84
2022-09-14T07:46:05.379Z,17.85
2022-09-14T07:46:51.989Z,17.87
2022-09-14T07:47:38.965Z,17.93
2022-09-14T07:48:25.626Z,17.88
2022-09-14T07:49:13.031Z,17.84
2022-09-14T07:49:59.601Z,17.80
2022-09-14T07:50:46.565Z,17.84
2022-09-14T07:51:36.622Z,17.84
2022-09-14T07:52:23.120Z,17.84
2022-09-14T07:53:09.829Z,17.97
2022-09-14T07:53:57.246Z,17.97
2022-09-14T07:54:43.653Z,18.04
2022-09-14T07:55:30.075Z,17.90
2022-09-14T07:56:16.852Z,17.96
2022-09-14T07:57:03.487Z,17.98
2022-09-14T07:57:56.500Z,17.92
2022-09-14T07:58:44.326Z,17.95
2022-09-14T07:59:38.487Z,17.89
2022-09-14T08:00:25.600Z,17.83
2022-09-14T08:01:20.198Z,17.90
2022-09-14T08:02:08.393Z,17.96
2022-09-14T08:02:57.912Z,18.07
2022-09-14T08:03:46.268Z,18.08
2022-09-14T08:04:35.789Z,18.15
2022-09-14T08:05:22.366Z,18.17
2022-09-14T08:06:12.980Z,18.21
2022-09-14T08:06:59.439Z,18.25
2022-09-14T08:07:45.880Z,18.24
2022-09-14T08:08:36.834Z,18.27
2022-09-14T08:09:25.691Z,18.27
2022-09-14T08:10:12.151Z,18.30
2022-09-14T08:11:18.023Z,18.25
2022-09-14T08:12:05.783Z,18.35
2022-09-14T08:12:53.754Z,18.27
2022-09-14T08:13:42.925Z,18.20
2022-09-14T08:14:29.280Z,18.22
2022-09-14T08:15:15.831Z,18.22
2022-09-14T08:16:02.727Z,18.24
2022-09-14T08:16:49.884Z,18.19
2022-09-14T08:17:36.293Z,18.24
2022-09-14T08:18:23.765Z,18.16
2022-09-14T08:19:16.944Z,18.33
2022-09-14T08:20:04.552Z,18.38
2022-09-14T08:20:50.910Z,18.36
2022-09-14T08:21:39.863Z,18.40
2022-09-14T08:22:29.262Z,18.23
2022-09-14T08:23:16.019Z,18.33
2022-09-14T08:24:04.085Z,18.36
2022-09-14T08:24:51.072Z,18.28
2022-09-14T08:25:37.509Z,18.27
2022-09-14T08:26:26.840Z,18.30
2022-09-14T08:27:17.003Z,18.27
2022-09-14T08:28:03.837Z,18.30
2022-09-14T08:28:51.822Z,18.40
2022-09-14T08:29:39.541Z,18.34
2022-09-14T08:30:25.894Z,18.48
2022-09-14T08:31:20.803Z,18.54
2022-09-14T08:32:07.295Z,18.50
2022-09-14T08:32:57.036Z,18.53
2022-09-14T08:33:48.041Z,18.33
2022-09-14T08:34:34.573Z,18.27
2022-09-14T08:35:35.446Z,18.23
2022-09-14T08:36:31.444Z,18.17
2022-09-14T08:37:18.091Z,18.26
2022-09-14T08:38:04.589Z,18.20
2022-09-14T08:38:51.717Z,18.15
2022-09-14T08:39:38.154Z,18.13
2022-09-14T08:40:24.669Z,18.19
2022-09-14T08:41:11.052Z,18.30
2022-09-14T08:42:00.403Z,18.41
2022-09-14T08:42:49.216Z,18.40
2022-09-14T08:43:39.051Z,18.34
2022-09-14T08:44:38.657Z,18.34
2022-09-14T08:45:25.183Z,18.33
2022-09-14T08:46:36.392Z,18.14
2022-09-14T08:47:29.309Z,18.05
2022-09-14T08:48:31.498Z,18.05
2022-09-14T08:49:30.914Z,18.10
2022-09-14T08:50:21.898Z,17.85
2022-09-14T08:51:08.395Z,17.84
2022-09-14T08:51:56.226Z,17.79
2022-09-14T08:52:47.139Z,17.84
2022-09-14T08:53:40.742Z,17.86
2022-09-14T08:54:27.243Z,17.92
2022-09-14T08:55:24.263Z,17.93
2022-09-14T08:56:21.597Z,17.90
2022-09-14T08:58:00.799Z,17.87
2022-09-14T08:59:02.997Z,17.89
2022-09-14T09:00:13.351Z,17.84
2022-09-14T09:01:20.191Z,17.84
2022-09-14T09:02:33.062Z,17.77
2022-09-14T09:03:57.915Z,17.81
2022-09-14T09:05:45.937Z,17.70
2022-09-14T09:06:40.206Z,17.67
2022-09-14T09:07:54.887Z,17.65
2022-09-14T09:09:16.504Z,17.55
2022-09-14T09:10:06.247Z,17.58
2022-09-14T09:10:54.872Z,17.57
2022-09-14T09:11:48.393Z,17.62
2022-09-14T09:12:39.523Z,17.58
2022-09-14T09:13:35.126Z,17.54
2022-09-14T09:14:31.147Z,17.51
2022-09-14T09:15:47.438Z,17.48
2022-09-14T09:16:34.071Z,17.52
2022-09-14T09:17:29.110Z,17.40
2022-09-14T09:18:23.459Z,17.39
2022-09-14T09:19:39.048Z,17.38
2022-09-14T09:20:35.801Z,17.49
2022-09-14T09:21:35.424Z,17.51
2022-09-14T09:22:27.711Z,17.51
2022-09-14T09:23:18.647Z,17.51
2022-09-14T09:24:33.219Z,17.70
2022-09-14T09:25:29.041Z,17.94
2022-09-14T09:26:32.265Z,18.01
2022-09-14T09:27:18.748Z,17.82
2022-09-14T09:28:11.892Z,17.92
2022-09-14T09:29:01.217Z,17.80
2022-09-14T09:29:47.923Z,17.78
2022-09-14T09:30:34.361Z,17.80
2022-09-14T09:31:34.721Z,17.89
2022-09-14T09:32:41.103Z,17.81
2022-09-14T09:33:51.089Z,17.73
2022-09-14T09:34:41.441Z,17.89
2022-09-14T09:35:34.053Z,17.87
2022-09-14T09:36:39.162Z,17.93
2022-09-14T09:37:25.661Z,17.90
2022-09-14T09:38:18.983Z,17.87
2022-09-14T09:39:06.628Z,17.85
2022-09-14T09:39:53.323Z,17.78
2022-09-14T09:40:45.223Z,17.74
2022-09-14T09:41:47.509Z,17.79
2022-09-14T09:42:33.954Z,17.71
2022-09-14T09:43:38.880Z,17.76
2022-09-14T09:44:28.206Z,17.95
2022-09-14T09:45:14.879Z,18.03
2022-09-14T09:46:04.705Z,18.12
2022-09-14T09:46:55.674Z,18.07
2022-09-14T09:47:42.832Z,18.14
2022-09-14T09:48:38.254Z,18.15
2022-09-14T09:49:36.000Z,18.11
2022-09-14T09:50:25.049Z,18.17
2022-09-14T09:51:13.788Z,18.10
2022-09-14T09:52:10.511Z,18.22
2022-09-14T09:53:03.272Z,18.23
2022-09-14T09:54:07.014Z,18.10
2022-09-14T09:54:56.803Z,18.08
2022-09-14T09:55:51.236Z,18.10
2022-09-14T09:56:56.312Z,18.20
2022-09-14T09:57:42.737Z,18.13
2022-09-14T09:58:34.140Z,18.27
2022-09-14T09:59:42.226Z,18.19
2022-09-14T10:00:31.857Z,18.21
2022-09-14T10:01:23.269Z,18.33
2022-09-14T10:02:30.402Z,18.21
2022-09-14T10:03:28.913Z,18.27
2022-09-14T10:04:21.643Z,18.32
2022-09-14T10:05:10.913Z,18.41
2022-09-14T10:06:24.040Z,18.43
2022-09-14T10:07:22.420Z,18.32
2022-09-14T10:08:15.650Z,18.49
2022-09-14T10:09:02.236Z,18.53
2022-09-14T10:10:13.683Z,18.32
2022-09-14T10:11:02.679Z,18.33
2022-09-14T10:11:59.587Z,18.19
2022-09-14T10:12:56.629Z,18.15
2022-09-14T10:13:47.150Z,18.14
2022-09-14T10:14:37.498Z,18.11
2022-09-14T10:15:29.415Z,18.06
2022-09-14T10:16:19.813Z,18.09
2022-09-14T10:17:21.891Z,18.06
2022-09-14T10:18:17.533Z,18.06
2022-09-14T10:19:13.876Z,18.10
2022-09-14T10:20:00.599Z,18.00
2022-09-14T10:20:53.205Z,17.93
2022-09-14T10:22:02.486Z,17.99
2022-09-14T10:22:49.719Z,17.97
2022-09-14T10:23:39.021Z,18.13
2022-09-14T10:24:25.544Z,18.10
2022-09-14T10:25:14.933Z,18.06
2022-09-14T10:26:10.349Z,18.17
2022-09-14T10:26:56.916Z,18.19
2022-09-14T10:27:55.429Z,18.21
2022-09-14T10:28:44.649Z,18.12
2022-09-14T10:29:44.042Z,17.99
2022-09-14T10:30:47.899Z,17.90
2022-09-14T10:31:45.391Z,17.82
2022-09-14T10:32:34.631Z,17.88
2022-09-14T10:33:21.136Z,17.93
2022-09-14T10:34:19.460Z,17.89
2022-09-14T10:35:13.902Z,17.96
2022-09-14T10:36:09.647Z,17.89
2022-09-14T10:37:13.845Z,17.83
2022-09-14T10:38:11.852Z,17.80
2022-09-14T10:39:15.946Z,17.74
2022-09-14T10:40:31.229Z,17.72
2022-09-14T10:41:46.411Z,17.69
2022-09-14T10:42:44.401Z,17.76
2022-09-14T10:43:46.009Z,17.70
2022-09-14T10:44:42.551Z,17.76
2022-09-14T10:45:35.663Z,17.83
2022-09-14T10:46:30.770Z,17.82
2022-09-14T10:47:49.208Z,18.00
2022-09-14T10:48:55.644Z,18.25
2022-09-14T10:50:25.895Z,18.21
2022-09-14T10:51:24.702Z,18.32
2022-09-14T10:52:48.436Z,18.34
2022-09-14T10:53:54.845Z,18.35
2022-09-14T10:54:41.209Z,18.33
2022-09-14T10:55:53.155Z,18.33
2022-09-14T10:56:51.389Z,18.30
2022-09-14T10:57:57.602Z,18.14
2022-09-14T10:59:24.272Z,18.23
2022-09-14T11:00:19.817Z,17.98
2022-09-14T11:01:32.136Z,18.04
2022-09-14T11:02:44.977Z,18.15
2022-09-14T11:03:50.288Z,18.03
2022-09-14T11:04:45.911Z,18.07
2022-09-14T11:05:42.125Z,18.14